Time;durP1;ratioP1;P1;durP2;ratioP2;P2;SDS_P1;SDS_P2;PMS_P1;PMS_P2;Temp;Humidity;BMP_temperature;BMP_pressure;BME280_temperature;BME280_humidity;BME280_pressure;Samples;Min_cycle;Max_cycle;Signal;HPM_P1;HPM_P2
2023/03/22 00:00:04;;;;;;;8.30;5.72;;;;;;;8.42;100.00;95621.88;1016409;29;20047;-70
2023/03/22 00:00:35;;;;;;;10.40;6.05;;;;;;;8.42;100.00;95620.06;1022857;29;20031;-69
2023/03/22 00:01:10;;;;;;;8.95;6.10;;;;;;;8.38;100.00;95615.56;1017309;29;20357;-70
2023/03/22 00:01:42;;;;;;;6.38;5.25;;;;;;;8.41;100.00;95620.28;1014895;29;20327;-69
2023/03/22 00:02:12;;;;;;;10.00;6.25;;;;;;;8.43;100.00;95626.06;1015045;29;20264;-70
2023/03/22 00:02:42;;;;;;;9.82;6.15;;;;;;;8.41;100.00;95621.06;1011192;29;20305;-69
2023/03/22 00:03:13;;;;;;;11.30;6.63;;;;;;;8.39;100.00;95617.94;1012199;28;20466;-70
2023/03/22 00:03:44;;;;;;;10.77;6.10;;;;;;;8.44;100.00;95620.56;1019005;29;20042;-69
2023/03/22 00:04:14;;;;;;;9.50;6.28;;;;;;;8.44;100.00;95614.56;1015389;29;20413;-69
2023/03/22 00:04:45;;;;;;;10.07;6.00;;;;;;;8.44;100.00;95617.19;1011125;29;20143;-69
2023/03/22 00:05:15;;;;;;;10.68;6.25;;;;;;;8.45;100.00;95626.59;1009745;29;20016;-69
2023/03/22 00:05:46;;;;;;;9.90;5.55;;;;;;;8.45;100.00;95623.97;1011314;29;20528;-71
2023/03/22 00:06:16;;;;;;;9.25;6.05;;;;;;;8.44;100.00;95635.47;1020100;29;20028;-69
2023/03/22 00:06:47;;;;;;;10.68;6.07;;;;;;;8.41;100.00;95621.06;1023169;29;20069;-69
2023/03/22 00:07:17;;;;;;;8.95;5.85;;;;;;;8.44;100.00;95625.03;1018643;29;20121;-69
2023/03/22 00:07:49;;;;;;;9.13;5.90;;;;;;;8.39;100.00;95617.94;1022834;29;20027;-71
2023/03/22 00:08:19;;;;;;;7.95;5.78;;;;;;;8.44;100.00;95625.03;1014809;29;20073;-70
2023/03/22 00:08:50;;;;;;;8.38;5.57;;;;;;;8.41;100.00;95620.28;1011309;29;20313;-71
2023/03/22 00:09:21;;;;;;;11.00;5.55;;;;;;;8.48;100.00;95628.69;1019064;29;20015;-71
2023/03/22 00:09:51;;;;;;;8.13;5.72;;;;;;;8.49;100.00;95631.09;1018987;29;20442;-69
2023/03/22 00:10:22;;;;;;;9.93;5.80;;;;;;;8.49;100.00;95627.69;1013639;29;20603;-69
2023/03/22 00:10:52;;;;;;;9.13;5.75;;;;;;;8.50;100.00;95630.03;1011295;29;20027;-71
2023/03/22 00:11:26;;;;;;;9.82;5.90;;;;;;;8.50;100.00;95624.03;1011113;29;20067;-69
2023/03/22 00:11:56;;;;;;;7.95;5.72;;;;;;;8.49;100.00;95628.47;1010983;29;20069;-71
2023/03/22 00:12:27;;;;;;;8.68;5.97;;;;;;;8.50;100.00;95629.25;1012175;29;20408;-69
2023/03/22 00:12:57;;;;;;;8.05;5.95;;;;;;;8.43;100.00;95618.22;1019602;28;20031;-69
2023/03/22 00:13:28;;;;;;;8.23;5.72;;;;;;;8.48;100.00;95618.25;1018907;29;20027;-69
2023/03/22 00:13:58;;;;;;;8.05;5.82;;;;;;;8.50;100.00;95627.41;1011100;29;20013;-70
2023/03/22 00:14:29;;;;;;;8.77;5.78;;;;;;;8.49;100.00;95628.47;1010823;29;20160;-69
2023/03/22 00:15:00;;;;;;;7.75;5.57;;;;;;;8.49;100.00;95622.47;1008650;29;20069;-69
2023/03/22 00:15:30;;;;;;;12.52;6.22;;;;;;;8.49;100.00;95627.69;1014611;28;20051;-70
2023/03/22 00:16:01;;;;;;;8.90;5.65;;;;;;;8.50;100.00;95624.03;1026685;28;20031;-71
2023/03/22 00:16:32;;;;;;;9.68;5.57;;;;;;;8.50;100.00;95622.19;1030965;28;20025;-69
2023/03/22 00:17:02;;;;;;;8.52;5.88;;;;;;;8.51;100.00;95625.59;1025015;28;20270;-71
2023/03/22 00:17:35;;;;;;;8.23;5.43;;;;;;;8.52;100.00;95632.41;1022912;29;20023;-72
2023/03/22 00:18:05;;;;;;;8.32;5.90;;;;;;;8.53;100.00;95623.53;1024769;28;20137;-68
2023/03/22 00:18:36;;;;;;;8.70;5.93;;;;;;;8.52;100.00;95621.97;1025646;28;20817;-69
2023/03/22 00:19:06;;;;;;;10.38;5.70;;;;;;;8.51;100.00;95617.75;1015111;29;20064;-69
2023/03/22 00:19:40;;;;;;;6.68;5.43;;;;;;;8.50;100.00;95619.56;1015518;29;20016;-69
2023/03/22 00:20:11;;;;;;;8.35;5.53;;;;;;;8.49;100.00;95622.47;1019231;29;20030;-69
2023/03/22 00:20:52;;;;;;;7.72;5.22;;;;;;;8.43;100.00;95610.38;1020131;28;20304;-70
2023/03/22 00:21:23;;;;;;;7.90;5.53;;;;;;;8.45;100.00;95614.31;1022767;29;20024;-69
2023/03/22 00:21:54;;;;;;;9.70;5.47;;;;;;;8.49;100.00;95622.47;1018878;29;20272;-71
2023/03/22 00:22:25;;;;;;;10.98;5.93;;;;;;;8.51;100.00;95620.34;1014986;29;20024;-70
2023/03/22 00:22:56;;;;;;;8.98;6.10;;;;;;;8.47;100.00;95603.59;1014897;29;20355;-70
2023/03/22 00:23:26;;;;;;;11.55;6.28;;;;;;;8.49;100.00;95614.59;1011444;29;20024;-71
2023/03/22 00:23:57;;;;;;;7.70;5.43;;;;;;;8.54;100.00;95617.25;1012347;29;20643;-69
2023/03/22 00:24:27;;;;;;;8.75;5.95;;;;;;;8.52;100.00;95621.97;1015374;29;20021;-70
2023/03/22 00:24:58;;;;;;;8.35;6.10;;;;;;;8.55;100.00;95615.41;1017324;29;20088;-68
2023/03/22 00:25:28;;;;;;;8.55;5.88;;;;;;;8.55;100.00;95624.06;1022177;29;20020;-70
2023/03/22 00:25:59;;;;;;;8.60;6.15;;;;;;;8.54;100.00;95614.63;1022980;28;20094;-69
2023/03/22 00:26:29;;;;;;;8.30;5.75;;;;;;;8.56;100.00;95622.25;1027775;28;20027;-69
2023/03/22 00:27:00;;;;;;;10.20;5.70;;;;;;;8.57;100.00;95624.59;1026551;28;20078;-70
2023/03/22 00:27:30;;;;;;;10.18;5.78;;;;;;;8.55;100.00;95626.69;1023073;29;20039;-69
2023/03/22 00:28:01;;;;;;;10.82;6.43;;;;;;;8.54;100.00;95622.47;1018751;29;20036;-70
2023/03/22 00:28:31;;;;;;;8.55;5.90;;;;;;;8.53;100.00;95623.53;1018962;29;20019;-71
2023/03/22 00:29:02;;;;;;;8.38;6.10;;;;;;;8.55;100.00;95618.84;1014599;29;20119;-69
2023/03/22 00:29:33;;;;;;;8.25;5.30;;;;;;;8.57;100.00;95623.81;1015116;29;20128;-71
2023/03/22 00:30:04;;;;;;;8.93;5.72;;;;;;;8.65;100.00;95631.16;1018740;29;20525;-69
2023/03/22 00:30:34;;;;;;;10.23;5.90;;;;;;;8.64;100.00;95630.38;1018762;29;20087;-69
2023/03/22 00:31:05;;;;;;;8.55;5.93;;;;;;;8.64;100.00;95634.81;1010991;29;20733;-69
2023/03/22 00:31:36;;;;;;;8.18;5.85;;;;;;;8.64;100.00;95638.22;1015413;29;20017;-69
2023/03/22 00:32:06;;;;;;;7.82;5.72;;;;;;;8.64;100.00;95637.44;1019983;29;20106;-69
2023/03/22 00:32:37;;;;;;;8.98;6.35;;;;;;;8.69;100.00;95634.88;1023072;28;20460;-73
2023/03/22 00:33:08;;;;;;;9.60;5.40;;;;;;;8.71;100.00;95638.78;1018751;29;20154;-69
2023/03/22 00:33:38;;;;;;;8.00;5.85;;;;;;;8.69;100.00;95638.28;1014849;29;20016;-73
2023/03/22 00:34:09;;;;;;;8.50;5.30;;;;;;;8.68;100.00;95643.75;1018984;29;20023;-70
2023/03/22 00:34:39;;;;;;;8.63;5.97;;;;;;;8.68;100.00;95641.91;1019121;28;20024;-71
2023/03/22 00:35:10;;;;;;;11.38;6.07;;;;;;;8.66;100.00;95644.00;1026088;28;20030;-69
2023/03/22 00:35:49;;;;;;;8.93;5.63;;;;;;;8.63;100.00;95638.50;1018583;29;20060;-68
2023/03/22 00:36:20;;;;;;;8.82;5.98;;;;;;;8.67;100.00;95650.03;1011155;29;20020;-69
2023/03/22 00:36:50;;;;;;;7.10;5.35;;;;;;;8.65;100.00;95642.44;1007257;29;20029;-69
2023/03/22 00:37:21;;;;;;;9.77;5.75;;;;;;;8.62;100.00;95639.53;1010443;29;20468;-71
2023/03/22 00:37:51;;;;;;;9.25;6.18;;;;;;;8.58;100.00;95636.63;1019327;29;20031;-71
2023/03/22 00:38:22;;;;;;;9.80;6.07;;;;;;;8.56;100.00;95637.94;1023005;28;20423;-69
2023/03/22 00:38:52;;;;;;;9.10;5.90;;;;;;;8.52;100.00;95635.03;1023942;28;20106;-69
2023/03/22 00:39:23;;;;;;;8.02;5.60;;;;;;;8.47;100.00;95637.59;1026579;28;20019;-71
2023/03/22 00:39:53;;;;;;;11.77;6.10;;;;;;;8.44;100.00;95640.72;1026818;28;20046;-70
2023/03/22 00:40:24;;;;;;;8.73;5.57;;;;;;;8.41;100.00;95635.97;1026772;28;20516;-69
2023/03/22 00:40:55;;;;;;;10.68;6.75;;;;;;;8.40;100.00;95637.81;1027007;28;20027;-69
2023/03/22 00:41:25;;;;;;;8.88;5.95;;;;;;;8.34;100.00;95632.75;1030525;28;20117;-71
2023/03/22 00:41:56;;;;;;;10.93;6.20;;;;;;;8.35;100.00;95642.19;1022871;29;20620;-69
2023/03/22 00:42:26;;;;;;;9.65;6.13;;;;;;;8.36;100.00;95635.94;1018868;29;20020;-69
2023/03/22 00:42:56;;;;;;;8.90;6.03;;;;;;;8.35;100.00;95636.94;1014955;29;20048;-69
2023/03/22 00:43:27;;;;;;;7.60;5.43;;;;;;;8.34;100.00;95636.16;1018822;29;20058;-70
2023/03/22 00:43:57;;;;;;;10.07;5.90;;;;;;;8.29;100.00;95624.91;1022758;28;20040;-69
2023/03/22 00:44:28;;;;;;;11.00;6.53;;;;;;;8.32;100.00;95637.47;1022866;28;20018;-68
2023/03/22 00:44:58;;;;;;;8.77;5.80;;;;;;;8.31;100.00;95639.28;1022957;29;20051;-71
2023/03/22 00:45:29;;;;;;;9.27;6.28;;;;;;;8.27;100.00;95641.59;1018058;29;20568;-69
2023/03/22 00:45:59;;;;;;;8.13;6.03;;;;;;;8.29;100.00;95640.59;1018184;29;20062;-70
2023/03/22 00:46:30;;;;;;;8.02;5.93;;;;;;;8.26;100.00;95641.88;1019137;29;20020;-70
2023/03/22 00:47:00;;;;;;;10.32;6.03;;;;;;;8.25;100.00;95638.47;1010936;29;20029;-70
2023/03/22 00:47:31;;;;;;;12.40;6.78;;;;;;;8.25;100.00;95642.91;1014746;29;20379;-68
2023/03/22 00:48:01;;;;;;;7.82;6.07;;;;;;;8.26;100.00;95637.41;1015123;29;20099;-71
2023/03/22 00:48:32;;;;;;;10.10;6.65;;;;;;;8.25;100.00;95632.47;1018878;29;20051;-71
2023/03/22 00:49:03;;;;;;;11.30;6.28;;;;;;;8.24;100.00;95631.66;1015667;29;20103;-71
2023/03/22 00:49:34;;;;;;;9.40;6.55;;;;;;;8.26;100.00;95629.56;1018379;29;20016;-70
2023/03/22 00:50:05;;;;;;;8.98;6.05;;;;;;;8.26;100.00;95629.56;1022690;29;20028;-70
2023/03/22 00:50:37;;;;;;;10.88;6.63;;;;;;;8.27;100.00;95641.59;1015363;29;20913;-69
2023/03/22 00:51:07;;;;;;;9.85;6.50;;;;;;;8.24;100.00;95633.47;1014599;29;20336;-72
2023/03/22 00:51:38;;;;;;;9.13;6.40;;;;;;;8.20;100.00;95630.56;1011022;29;20698;-71
2023/03/22 00:52:08;;;;;;;9.65;5.70;;;;;;;8.22;100.00;95635.56;1018680;29;20489;-70
2023/03/22 00:52:39;;;;;;;9.55;6.07;;;;;;;8.18;100.00;95632.66;1017130;29;20587;-70
2023/03/22 00:53:09;;;;;;;10.93;6.57;;;;;;;8.18;100.00;95635.28;1015001;29;20425;-71
2023/03/22 00:53:40;;;;;;;10.50;6.18;;;;;;;8.19;100.00;95628.22;1018943;29;20020;-70
2023/03/22 00:54:11;;;;;;;10.75;6.80;;;;;;;8.16;100.00;95626.88;1018733;28;20386;-70
2023/03/22 00:54:41;;;;;;;8.93;5.95;;;;;;;8.16;100.00;95626.09;1019038;29;20556;-69
2023/03/22 00:55:12;;;;;;;10.20;6.50;;;;;;;8.18;100.00;95632.66;1014231;29;20035;-71
2023/03/22 00:55:42;;;;;;;8.75;6.20;;;;;;;8.22;100.00;95625.91;1010747;29;20089;-69
2023/03/22 00:56:14;;;;;;;11.05;6.53;;;;;;;8.23;100.00;95626.69;1010610;29;20025;-70
2023/03/22 00:56:52;;;;;;;8.27;6.03;;;;;;;8.20;100.00;95635.81;1011329;29;20028;-70
2023/03/22 00:57:22;;;;;;;8.30;5.78;;;;;;;8.21;100.00;95626.13;1020063;29;20644;-70
2023/03/22 00:57:53;;;;;;;9.10;6.57;;;;;;;8.24;100.00;95631.66;1019727;29;20303;-70
2023/03/22 00:58:23;;;;;;;8.10;5.78;;;;;;;8.27;100.00;95628.53;1015806;29;20031;-69
2023/03/22 00:58:54;;;;;;;10.30;6.05;;;;;;;8.27;100.00;95632.97;1011229;29;20170;-69
2023/03/22 00:59:25;;;;;;;9.52;5.25;;;;;;;8.25;100.00;95633.25;1010843;29;20104;-70
2023/03/22 00:59:57;;;;;;;9.48;6.30;;;;;;;8.23;100.00;95632.69;1015195;29;20457;-69
2023/03/22 01:00:27;;;;;;;9.52;6.32;;;;;;;8.20;100.00;95624.56;1019364;28;20635;-71
2023/03/22 01:00:58;;;;;;;10.50;6.22;;;;;;;8.22;100.00;95625.91;1023528;28;20311;-72
2023/03/22 01:01:28;;;;;;;10.38;6.30;;;;;;;8.21;100.00;95626.91;1018930;29;20110;-69
2023/03/22 01:01:59;;;;;;;9.55;6.40;;;;;;;8.21;100.00;95626.91;1018815;29;20024;-70
2023/03/22 01:02:29;;;;;;;7.72;5.30;;;;;;;8.22;100.00;95623.28;1014737;29;20032;-69
2023/03/22 01:03:03;;;;;;;8.57;6.05;;;;;;;8.22;100.00;95628.50;1018656;28;20095;-71
2023/03/22 01:03:34;;;;;;;8.88;6.15;;;;;;;8.19;100.00;95613.31;1026741;28;20603;-69
2023/03/22 01:04:04;;;;;;;9.00;5.72;;;;;;;8.16;100.00;95608.59;1022884;29;20294;-71
2023/03/22 01:04:35;;;;;;;8.45;5.85;;;;;;;8.23;100.00;95624.06;1020551;29;20652;-70
2023/03/22 01:05:06;;;;;;;10.50;5.93;;;;;;;8.23;100.00;95618.84;1018138;29;20050;-69
2023/03/22 01:05:36;;;;;;;8.95;6.22;;;;;;;8.23;100.00;95622.22;1014002;29;20024;-72
2023/03/22 01:06:07;;;;;;;8.73;6.05;;;;;;;8.20;100.00;95609.66;1015723;29;20068;-69
2023/03/22 01:06:38;;;;;;;13.18;5.85;;;;;;;8.27;100.00;95618.06;1018814;29;20084;-69
2023/03/22 01:07:08;;;;;;;7.72;5.80;;;;;;;8.25;100.00;95622.00;1018741;29;20016;-70
2023/03/22 01:07:40;;;;;;;9.75;6.72;;;;;;;8.25;100.00;95620.16;1014656;29;20027;-69
2023/03/22 01:08:11;;;;;;;10.50;6.30;;;;;;;8.20;100.00;95609.66;1011238;29;20559;-70
2023/03/22 01:08:42;;;;;;;10.82;6.43;;;;;;;8.24;100.00;95615.97;1019214;28;20272;-69
2023/03/22 01:09:13;;;;;;;8.77;5.95;;;;;;;8.23;100.00;95614.41;1026953;28;20301;-69
2023/03/22 01:09:47;;;;;;;8.98;5.75;;;;;;;8.27;100.00;95614.69;1022706;29;20015;-69
2023/03/22 01:10:18;;;;;;;8.80;5.95;;;;;;;8.21;100.00;95611.22;1018761;29;20346;-70
2023/03/22 01:10:49;;;;;;;9.68;6.03;;;;;;;8.26;100.00;95619.13;1014678;29;20023;-69
2023/03/22 01:11:19;;;;;;;9.25;6.10;;;;;;;8.20;100.00;95607.06;1014911;29;20052;-70
2023/03/22 01:11:50;;;;;;;8.27;5.65;;;;;;;8.29;100.00;95611.84;1018737;29;20267;-69
2023/03/22 01:12:20;;;;;;;10.20;6.93;;;;;;;8.31;100.00;95617.56;1021606;29;20023;-68
2023/03/22 01:12:51;;;;;;;8.38;6.00;;;;;;;8.29;100.00;95617.06;1018505;29;20016;-70
2023/03/22 01:13:21;;;;;;;8.60;6.10;;;;;;;8.34;100.00;95624.91;1018806;29;20027;-71
2023/03/22 01:13:53;;;;;;;9.98;6.57;;;;;;;8.34;100.00;95627.53;1015587;29;20027;-69
2023/03/22 01:14:24;;;;;;;9.68;5.72;;;;;;;8.27;100.00;95612.06;1018796;29;20074;-70
2023/03/22 01:14:57;;;;;;;7.82;5.40;;;;;;;8.32;100.00;95619.97;1019334;28;20274;-71
2023/03/22 01:15:27;;;;;;;10.50;6.10;;;;;;;8.27;100.00;95614.69;1021691;29;20334;-71
2023/03/22 01:15:58;;;;;;;10.52;6.65;;;;;;;8.31;100.00;95622.81;1018629;29;20418;-71
2023/03/22 01:16:28;;;;;;;9.35;5.95;;;;;;;8.29;100.00;95620.47;1019014;29;20028;-70
2023/03/22 01:16:59;;;;;;;12.10;6.43;;;;;;;8.31;100.00;95617.56;1014572;29;20032;-69
2023/03/22 01:17:29;;;;;;;9.48;5.70;;;;;;;8.31;100.00;95625.41;1014686;29;20036;-70
2023/03/22 01:18:00;;;;;;;10.25;6.40;;;;;;;8.30;100.00;95629.88;1018854;29;20046;-70
2023/03/22 01:18:31;;;;;;;9.45;6.13;;;;;;;8.31;100.00;95620.19;1014961;29;20027;-69
2023/03/22 01:19:02;;;;;;;9.38;6.03;;;;;;;8.25;100.00;95619.38;1014924;29;20505;-70
2023/03/22 01:19:33;;;;;;;10.38;5.72;;;;;;;8.25;100.00;95614.94;1018576;29;20023;-71
2023/03/22 01:20:05;;;;;;;11.32;6.38;;;;;;;8.28;100.00;95624.09;1019208;29;20259;-70
2023/03/22 01:20:36;;;;;;;7.53;5.60;;;;;;;8.29;100.00;95622.28;1023284;28;20271;-70
2023/03/22 01:21:06;;;;;;;11.38;6.72;;;;;;;8.30;100.00;95627.25;1026060;28;20254;-70
2023/03/22 01:21:37;;;;;;;9.48;6.03;;;;;;;8.30;100.00;95623.84;1018901;29;20027;-69
2023/03/22 01:22:07;;;;;;;10.63;6.28;;;;;;;8.31;100.00;95623.59;1022884;28;20144;-68
2023/03/22 01:22:38;;;;;;;9.50;5.80;;;;;;;8.33;100.00;95631.97;1018737;29;20028;-70
2023/03/22 01:23:08;;;;;;;9.07;5.97;;;;;;;8.31;100.00;95628.81;1022453;29;20030;-69
2023/03/22 01:23:39;;;;;;;11.25;6.57;;;;;;;8.40;100.00;95639.63;1023036;29;20019;-70
2023/03/22 01:24:09;;;;;;;12.48;7.30;;;;;;;8.44;100.00;95638.88;1022856;29;20027;-70
2023/03/22 01:24:40;;;;;;;11.77;6.68;;;;;;;8.45;100.00;95637.03;1023225;29;20377;-71
2023/03/22 01:25:10;;;;;;;10.75;7.10;;;;;;;8.47;100.00;95634.97;1022246;29;20026;-69
2023/03/22 01:25:41;;;;;;;12.30;6.43;;;;;;;8.46;100.00;95636.03;1022932;28;20062;-69
2023/03/22 01:26:12;;;;;;;11.68;6.55;;;;;;;8.43;100.00;95629.47;1019026;29;20035;-70
2023/03/22 01:26:43;;;;;;;9.02;6.25;;;;;;;8.47;100.00;95632.38;1018595;29;20059;-69
2023/03/22 01:27:13;;;;;;;10.73;6.28;;;;;;;8.47;100.00;95637.59;1018366;29;20034;-70
2023/03/22 01:27:44;;;;;;;11.35;6.70;;;;;;;8.47;100.00;95634.97;1018901;29;20291;-71
2023/03/22 01:28:14;;;;;;;10.23;6.05;;;;;;;8.47;100.00;95635.75;1022802;28;20081;-69
2023/03/22 01:28:45;;;;;;;8.90;6.05;;;;;;;8.46;100.00;95633.41;1025128;28;20101;-71
2023/03/22 01:29:15;;;;;;;10.32;6.03;;;;;;;8.45;100.00;95626.59;1026488;28;20051;-70
2023/03/22 01:29:46;;;;;;;9.57;6.25;;;;;;;8.45;100.00;95626.59;1030550;28;20027;-70
2023/03/22 01:30:16;;;;;;;11.43;6.45;;;;;;;8.45;100.00;95626.59;1022825;28;20024;-69
2023/03/22 01:30:47;;;;;;;10.45;6.15;;;;;;;8.43;100.00;95624.25;1022584;29;20032;-69
2023/03/22 01:31:17;;;;;;;10.90;5.78;;;;;;;8.40;100.00;95618.72;1018558;29;20027;-70
2023/03/22 01:31:48;;;;;;;11.15;5.85;;;;;;;8.40;100.00;95621.34;1007045;29;20537;-70
2023/03/22 01:32:18;;;;;;;10.10;6.40;;;;;;;8.38;100.00;95620.78;1013474;29;20024;-70
2023/03/22 01:32:49;;;;;;;11.05;6.32;;;;;;;8.38;100.00;95618.19;1014937;29;20529;-69
2023/03/22 01:33:19;;;;;;;8.60;5.93;;;;;;;8.30;100.00;95611.56;1022565;28;20035;-68
2023/03/22 01:33:50;;;;;;;8.38;6.00;;;;;;;8.31;100.00;95613.13;1022457;29;20031;-70
2023/03/22 01:34:21;;;;;;;9.30;6.25;;;;;;;8.37;100.00;95617.38;1011037;29;20017;-70
2023/03/22 01:34:51;;;;;;;13.40;5.55;;;;;;;8.35;100.00;95616.03;1010804;29;20029;-69
2023/03/22 01:35:22;;;;;;;9.25;6.35;;;;;;;8.33;100.00;95618.13;1006434;29;20025;-69
2023/03/22 01:35:52;;;;;;;9.70;6.07;;;;;;;8.32;100.00;95616.56;1015243;28;20020;-70
2023/03/22 01:36:29;;;;;;;11.15;5.72;;;;;;;8.26;100.00;95613.91;1014494;29;20028;-68
2023/03/22 01:36:59;;;;;;;9.75;6.50;;;;;;;8.29;100.00;95615.22;1014952;29;20529;-70
2023/03/22 01:37:31;;;;;;;9.63;6.28;;;;;;;8.24;100.00;95613.34;1010442;29;20269;-70
2023/03/22 01:38:02;;;;;;;14.23;6.03;;;;;;;8.17;100.00;95602.31;1016659;29;20836;-68
2023/03/22 01:38:32;;;;;;;8.68;5.85;;;;;;;8.25;100.00;95617.56;1018598;29;20252;-70
2023/03/22 01:39:03;;;;;;;9.43;6.20;;;;;;;8.25;100.00;95612.31;1018385;29;20143;-70
2023/03/22 01:39:34;;;;;;;8.77;6.10;;;;;;;8.27;100.00;95612.84;1010704;29;20159;-69
2023/03/22 01:40:05;;;;;;;10.85;6.55;;;;;;;8.24;100.00;95609.94;1018488;29;20764;-69
2023/03/22 01:40:35;;;;;;;9.02;5.80;;;;;;;8.25;100.00;95612.31;1022265;28;20015;-71
2023/03/22 01:41:06;;;;;;;10.05;6.68;;;;;;;8.22;100.00;95610.22;1026621;28;20266;-70
2023/03/22 01:41:36;;;;;;;9.90;6.22;;;;;;;8.22;100.00;95609.44;1022363;28;20028;-69
2023/03/22 01:42:12;;;;;;;10.50;6.63;;;;;;;8.22;100.00;95607.59;1022454;29;20039;-70
2023/03/22 01:42:42;;;;;;;9.13;6.38;;;;;;;8.21;100.00;95606.00;1014691;29;20037;-69
2023/03/22 01:43:13;;;;;;;10.18;6.68;;;;;;;8.18;100.00;95600.50;1016063;29;20646;-69
2023/03/22 01:43:44;;;;;;;9.07;6.38;;;;;;;8.20;100.00;95608.88;1018718;29;20524;-68
2023/03/22 01:44:17;;;;;;;9.45;5.95;;;;;;;8.20;100.00;95608.88;1018785;28;20267;-71
2023/03/22 01:45:12;;;;;;;13.35;6.30;;;;;;;8.24;100.00;95610.72;1018587;29;20111;-73
2023/03/22 01:45:50;;;;;;;11.13;6.32;;;;;;;8.18;100.00;95601.31;1020621;29;20254;-71
2023/03/22 01:46:21;;;;;;;14.52;6.43;;;;;;;8.24;100.00;95604.72;1023155;28;20251;-69
2023/03/22 01:46:51;;;;;;;9.98;6.40;;;;;;;8.23;100.00;95609.16;1026551;28;20261;-70
2023/03/22 01:47:21;;;;;;;9.40;6.13;;;;;;;8.16;100.00;95599.97;1026466;28;20018;-68
2023/03/22 01:47:54;;;;;;;9.63;6.38;;;;;;;8.14;100.00;95596.81;1022693;29;20047;-68
2023/03/22 01:48:24;;;;;;;8.18;5.72;;;;;;;8.17;100.00;95604.16;1018163;29;20039;-69
2023/03/22 01:48:56;;;;;;;9.38;5.97;;;;;;;8.11;100.00;95600.69;1012695;29;20942;-72
2023/03/22 01:49:31;;;;;;;8.80;6.18;;;;;;;8.06;100.00;95590.22;1015063;29;20027;-69
2023/03/22 01:50:02;;;;;;;9.73;6.72;;;;;;;8.13;100.00;95606.47;1015330;29;21063;-69
2023/03/22 01:50:32;;;;;;;10.40;6.65;;;;;;;8.10;100.00;95596.53;1018669;29;20292;-71
2023/03/22 01:51:08;;;;;;;8.25;6.07;;;;;;;8.10;100.00;95600.97;1017549;29;20027;-69
2023/03/22 01:51:39;;;;;;;9.77;6.22;;;;;;;8.06;100.00;95592.06;1015682;29;20075;-70
2023/03/22 01:52:11;;;;;;;9.60;6.47;;;;;;;8.09;100.00;95602.00;1022421;29;20776;-70
2023/03/22 01:52:41;;;;;;;9.07;6.60;;;;;;;8.01;100.00;95596.22;1018269;29;20598;-72
2023/03/22 01:53:12;;;;;;;10.68;6.57;;;;;;;8.03;100.00;95596.72;1022613;29;20267;-72
2023/03/22 01:53:48;;;;;;;11.35;6.10;;;;;;;7.99;100.00;95592.25;1026436;28;20386;-69
2023/03/22 01:54:44;;;;;;;10.95;6.82;;;;;;;8.03;100.00;95601.16;1018117;29;20016;-69
2023/03/22 01:55:17;;;;;;;12.88;6.15;;;;;;;8.02;100.00;95599.59;1021506;29;20286;-70
2023/03/22 01:55:47;;;;;;;10.73;6.35;;;;;;;7.96;100.00;95592.75;1022115;29;20262;-70
2023/03/22 01:56:23;;;;;;;10.95;6.45;;;;;;;8.00;100.00;95597.22;1026173;28;20265;-71
2023/03/22 01:56:53;;;;;;;10.38;6.40;;;;;;;7.97;100.00;95594.31;1018823;29;20027;-69
2023/03/22 01:57:24;;;;;;;13.23;7.47;;;;;;;7.99;100.00;95597.50;1015721;29;20272;-68
2023/03/22 01:57:54;;;;;;;12.48;6.45;;;;;;;7.95;100.00;95597.19;1021265;29;20099;-70
2023/03/22 01:58:25;;;;;;;10.02;6.20;;;;;;;7.94;100.00;95594.81;1018460;29;20027;-68
2023/03/22 01:58:55;;;;;;;9.75;6.05;;;;;;;7.95;100.00;95591.19;1017251;29;20163;-70
2023/03/22 01:59:26;;;;;;;9.85;6.47;;;;;;;7.92;100.00;95589.84;1018018;29;20031;-69
2023/03/22 01:59:57;;;;;;;13.48;6.57;;;;;;;7.88;100.00;95590.59;1018592;29;20408;-73
2023/03/22 02:00:27;;;;;;;9.52;6.85;;;;;;;7.90;100.00;95596.38;1014632;29;20087;-71
2023/03/22 02:00:58;;;;;;;10.13;6.53;;;;;;;7.80;100.00;95584.78;1014472;29;20032;-69
2023/03/22 02:01:29;;;;;;;9.70;6.05;;;;;;;7.87;100.00;95597.63;1018263;29;20024;-69
2023/03/22 02:02:01;;;;;;;9.77;6.75;;;;;;;7.79;100.00;95588.44;1018573;29;20110;-70
2023/03/22 02:02:32;;;;;;;10.30;6.50;;;;;;;7.86;100.00;95595.28;1018197;29;20107;-68
2023/03/22 02:03:02;;;;;;;9.57;6.80;;;;;;;7.87;100.00;95591.63;1014570;29;20264;-70
2023/03/22 02:03:47;;;;;;;8.98;6.38;;;;;;;7.85;100.00;95591.09;1006790;29;20109;-69
2023/03/22 02:04:22;;;;;;;9.98;6.43;;;;;;;7.80;100.00;95589.22;1014281;29;20020;-72
2023/03/22 02:04:56;;;;;;;10.32;6.45;;;;;;;7.84;100.00;95599.97;1014438;29;20268;-70
2023/03/22 02:05:27;;;;;;;10.35;6.65;;;;;;;7.83;100.00;95595.78;1009260;29;20285;-70
2023/03/22 02:05:57;;;;;;;10.50;6.80;;;;;;;7.73;100.00;95584.19;1017994;29;20267;-72
2023/03/22 02:06:28;;;;;;;10.32;6.72;;;;;;;7.75;100.00;95581.34;1018392;29;20493;-69
2023/03/22 02:07:08;;;;;;;11.10;6.45;;;;;;;7.77;100.00;95587.88;1006971;29;20028;-69
2023/03/22 02:07:40;;;;;;;10.60;6.20;;;;;;;7.80;100.00;95590.00;1010602;29;20298;-69
2023/03/22 02:08:13;;;;;;;9.27;6.10;;;;;;;7.82;100.00;95592.38;1014802;29;20020;-70
2023/03/22 02:08:44;;;;;;;11.20;7.22;;;;;;;7.84;100.00;95595.53;1016322;29;21097;-71
2023/03/22 02:09:20;;;;;;;10.20;5.85;;;;;;;7.88;100.00;95595.81;1015627;29;20256;-69
2023/03/22 02:09:52;;;;;;;9.98;6.63;;;;;;;7.90;100.00;95591.13;1014697;29;20496;-69
2023/03/22 02:10:25;;;;;;;10.10;6.07;;;;;;;7.94;100.00;95600.03;1013488;29;20757;-71
2023/03/22 02:10:55;;;;;;;7.85;5.53;;;;;;;7.97;100.00;95600.34;1018295;29;20332;-69
2023/03/22 02:12:08;;;;;;;9.82;6.20;;;;;;;8.02;100.00;95597.78;1019156;29;20266;-69
2023/03/22 02:13:24;;;;;;;12.02;5.80;;;;;;;8.03;100.00;95598.56;1000657;29;20030;-69
2023/03/22 02:14:21;;;;;;;10.95;6.25;;;;;;;8.01;100.00;95595.41;998780;29;20302;-70
2023/03/22 02:15:15;;;;;;;9.00;5.90;;;;;;;8.03;100.00;95598.56;1000490;29;20263;-69
2023/03/22 02:15:51;;;;;;;9.50;6.70;;;;;;;8.03;100.00;95598.56;1008551;29;20272;-69
2023/03/22 02:16:46;;;;;;;9.27;5.95;;;;;;;8.03;100.00;95598.56;1022481;28;20313;-70
2023/03/22 02:17:27;;;;;;;8.95;5.60;;;;;;;8.03;100.00;95599.34;1026228;28;20944;-72
2023/03/22 02:18:20;;;;;;;8.85;5.68;;;;;;;8.07;100.00;95591.78;1026958;28;20593;-71
2023/03/22 02:18:54;;;;;;;8.55;5.65;;;;;;;8.06;100.00;95590.22;1022302;29;20693;-72
2023/03/22 02:19:50;;;;;;;10.30;5.70;;;;;;;8.09;100.00;95597.56;1014490;29;20285;-73
2023/03/22 02:20:37;;;;;;;8.65;5.47;;;;;;;8.09;100.00;95588.94;1010613;29;20252;-70
2023/03/22 02:21:07;;;;;;;11.70;6.20;;;;;;;8.07;100.00;95589.19;1021250;28;20718;-70
2023/03/22 02:22:08;;;;;;;9.50;6.32;;;;;;;8.06;100.00;95587.63;1029132;28;20257;-69
2023/03/22 02:23:04;;;;;;;9.82;5.95;;;;;;;8.06;100.00;95581.59;1026305;28;20033;-70
2023/03/22 02:23:52;;;;;;;8.65;5.82;;;;;;;8.03;100.00;95582.88;1026890;28;20048;-69
2023/03/22 02:24:44;;;;;;;8.73;5.88;;;;;;;8.03;100.00;95583.66;1030698;28;20254;-69
2023/03/22 02:25:20;;;;;;;9.48;5.90;;;;;;;8.00;100.00;95580.75;1030311;28;20355;-69
2023/03/22 02:26:18;;;;;;;9.90;6.32;;;;;;;8.01;100.00;95577.91;1030885;28;20300;-70
2023/03/22 02:27:21;;;;;;;10.38;6.05;;;;;;;8.01;100.00;95580.53;1031102;28;20249;-69
2023/03/22 02:28:13;;;;;;;12.45;6.20;;;;;;;8.01;100.00;95577.91;1016011;28;20351;-69
2023/03/22 02:29:07;;;;;;;9.73;6.20;;;;;;;7.99;100.00;95571.38;1028654;28;20268;-70
2023/03/22 02:30:04;;;;;;;9.00;5.93;;;;;;;8.00;100.00;95578.16;1025252;28;20999;-69
2023/03/22 02:30:43;;;;;;;13.93;6.95;;;;;;;8.00;100.00;95580.75;1018627;29;20307;-70
2023/03/22 02:31:31;;;;;;;8.80;6.00;;;;;;;7.98;100.00;95580.22;1015682;29;20272;-69
2023/03/22 02:32:25;;;;;;;10.45;7.25;;;;;;;7.98;100.00;95577.59;1022872;29;20255;-69
2023/03/22 02:33:24;;;;;;;11.40;6.72;;;;;;;8.01;100.00;95579.72;1027555;28;20620;-69
2023/03/22 02:34:21;;;;;;;8.93;6.30;;;;;;;8.00;100.00;95583.38;1020981;29;20263;-69
2023/03/22 02:34:59;;;;;;;10.27;6.65;;;;;;;7.99;100.00;95581.81;1013770;29;20257;-69
2023/03/22 02:35:36;;;;;;;10.07;6.68;;;;;;;7.99;100.00;95581.81;1015564;29;20265;-69
2023/03/22 02:36:31;;;;;;;10.90;6.60;;;;;;;7.98;100.00;95588.06;1019058;29;20269;-71